Terminal Aerodrome Forecast
Issued by NWS

Home | Current Version | Previous Version | Text Only | Print | Product List | Glossary On
Versions: 1 2 3 4 5 6 7 8 9 10 11 12 13 14 15 16 17 18 19 20 21
000
FTUS41 KOKX 272350
TAFSWF
TAF
KSWF 272350Z 2800/2906 32006KT P6SM BKN050
     FM280500 35008KT P6SM BKN035
     FM281100 34010G16KT P6SM OVC030
     FM281800 34013G18KT P6SM VCSH OVC030
     FM282200 33013G22KT P6SM VCSH BKN040
      AMD NOT SKED=

USA.gov is the U.S. government's official web portal to all federal, state and local government web resources and services.